createdAt,value
2018-02-20T00:00:37.121Z,0.46
2018-02-20T00:01:37.098Z,0.41
2018-02-20T00:02:36.827Z,0.33
2018-02-20T00:03:37.072Z,0.33
2018-02-20T00:04:37.051Z,0.36
2018-02-20T00:05:37.049Z,0.33
2018-02-20T00:06:37.022Z,0.36
2018-02-20T00:07:37.008Z,0.26
2018-02-20T00:08:36.990Z,0.26
2018-02-20T00:09:36.963Z,0.24
2018-02-20T00:10:36.951Z,0.28
2018-02-20T00:11:36.936Z,0.24
2018-02-20T00:12:36.921Z,0.2
2018-02-20T00:13:36.900Z,0.18
2018-02-20T00:14:36.881Z,0.24
2018-02-20T00:15:36.866Z,0.23
2018-02-20T00:16:36.600Z,0.1
2018-02-20T00:17:36.834Z,0.15
2018-02-20T00:18:36.307Z,0.11
2018-02-20T00:19:36.807Z,0.2
2018-02-20T00:20:36.789Z,0.14
2018-02-20T00:21:36.763Z,0.08
2018-02-20T00:22:36.756Z,0.07
2018-02-20T00:23:36.780Z,0.17
2018-02-20T00:24:36.733Z,0.08
2018-02-20T00:25:36.695Z,0.03
2018-02-20T00:26:36.674Z,0.08
2018-02-20T00:27:36.664Z,0.07
2018-02-20T00:28:36.653Z,0
2018-02-20T00:29:36.629Z,0.1
2018-02-20T00:30:36.612Z,0.03
2018-02-20T00:31:36.604Z,0.08
2018-02-20T00:32:36.578Z,0.04
2018-02-20T00:33:36.306Z,-0.04
2018-02-20T00:34:36.292Z,0
2018-02-20T00:35:36.541Z,0.02
2018-02-20T00:36:36.001Z,-0.04
2018-02-20T00:37:36.492Z,0.03
2018-02-20T00:38:36.478Z,0.04
2018-02-20T00:39:36.457Z,-0.01
2018-02-20T00:40:36.448Z,0.14
2018-02-20T00:41:36.440Z,0.04
2018-02-20T00:42:36.406Z,0.04
2018-02-20T00:43:36.393Z,0.15
2018-02-20T00:44:36.384Z,0.14
2018-02-20T00:45:36.356Z,0.14
2018-02-20T00:46:36.344Z,0.1
2018-02-20T00:47:36.322Z,-0.04
2018-02-20T00:48:36.058Z,-0.03
2018-02-20T00:49:36.291Z,0
2018-02-20T00:50:36.526Z,0
2018-02-20T00:51:36.263Z,-0.03
2018-02-20T00:52:36.244Z,0.02
2018-02-20T00:53:36.225Z,0
2018-02-20T00:54:36.208Z,0
2018-02-20T00:55:36.196Z,-0.04
2018-02-20T00:56:36.171Z,-0.05
2018-02-20T00:57:36.157Z,0.02
2018-02-20T00:58:35.885Z,0
2018-02-20T00:59:36.124Z,-0.05
2018-02-20T01:00:35.850Z,-0.03
2018-02-20T01:01:35.835Z,0
2018-02-20T01:02:36.086Z,0.03
2018-02-20T01:03:36.054Z,-0.07
2018-02-20T01:04:36.035Z,0.02
2018-02-20T01:05:36.021Z,-0.04
2018-02-20T01:06:36.006Z,-0.08
2018-02-20T01:07:35.990Z,-0.03
2018-02-20T01:08:35.981Z,-0.01
2018-02-20T01:09:35.954Z,-0.04
2018-02-20T01:10:35.937Z,-0.04
2018-02-20T01:11:35.661Z,-0.03
2018-02-20T01:12:35.950Z,-0.01
2018-02-20T01:13:35.888Z,-0.08
2018-02-20T01:14:35.871Z,-0.04
2018-02-20T01:15:35.861Z,-0.03
2018-02-20T01:16:35.836Z,-0.04
2018-02-20T01:17:35.825Z,0.08
2018-02-20T01:18:35.799Z,0.08
2018-02-20T01:19:35.784Z,0.08
2018-02-20T01:20:35.766Z,0.04
2018-02-20T01:21:35.998Z,0.13
2018-02-20T01:22:35.734Z,0.15
2018-02-20T01:23:35.717Z,0.23
2018-02-20T01:24:35.700Z,0.2
2018-02-20T01:25:35.432Z,0.18
2018-02-20T01:26:35.667Z,0.24
2018-02-20T01:27:35.401Z,0.21
2018-02-20T01:28:35.633Z,0.35
2018-02-20T01:29:35.359Z,0.32
2018-02-20T01:30:35.598Z,0.24
2018-02-20T01:31:35.580Z,0.31
2018-02-20T01:32:35.571Z,0.31
2018-02-20T01:33:35.551Z,0.31
2018-02-20T01:34:35.540Z,0.32
2018-02-20T01:35:35.515Z,0.35
2018-02-20T01:36:35.499Z,0.38
2018-02-20T01:37:35.485Z,0.41
2018-02-20T01:38:35.466Z,0.41
2018-02-20T01:39:35.456Z,0.35
2018-02-20T01:40:35.429Z,0.42
2018-02-20T01:41:35.157Z,0.47
2018-02-20T01:42:35.140Z,0.46
2018-02-20T01:43:35.393Z,0.47
2018-02-20T01:44:35.111Z,0.49
2018-02-20T01:45:35.350Z,0.51
2018-02-20T01:46:35.330Z,0.51
2018-02-20T01:47:35.315Z,0.5
2018-02-20T01:48:35.299Z,0.53
2018-02-20T01:49:35.283Z,0.46
2018-02-20T01:50:35.271Z,0.47
2018-02-20T01:51:35.243Z,0.47
2018-02-20T01:52:35.487Z,0.46
2018-02-20T01:53:35.222Z,0.44
2018-02-20T01:54:35.204Z,0.44
2018-02-20T01:55:35.183Z,0.44
2018-02-20T01:56:35.163Z,0.42
2018-02-20T01:57:35.153Z,0.42
2018-02-20T01:58:34.877Z,0.51
2018-02-20T01:59:34.858Z,0.42
2018-02-20T02:00:35.096Z,0.42
2018-02-20T02:01:35.078Z,0.41
2018-02-20T02:02:34.811Z,0.5
2018-02-20T02:03:35.050Z,0.55
2018-02-20T02:04:34.773Z,0.58
2018-02-20T02:05:35.018Z,0.62
2018-02-20T02:06:34.995Z,0.58
2018-02-20T02:07:34.977Z,0.55
2018-02-20T02:08:34.968Z,0.62
2018-02-20T02:09:34.955Z,0.58
2018-02-20T02:10:34.927Z,0.62
2018-02-20T02:11:34.924Z,0.58
2018-02-20T02:12:34.896Z,0.65
2018-02-20T02:13:34.878Z,0.65
2018-02-20T02:14:34.865Z,0.6
2018-02-20T02:15:34.846Z,0.7
2018-02-20T02:16:34.878Z,0.68
2018-02-20T02:17:34.826Z,0.62
2018-02-20T02:18:35.094Z,0.7
2018-02-20T02:19:34.785Z,0.69
2018-02-20T02:20:34.776Z,0.75
2018-02-20T02:21:34.749Z,0.7
2018-02-20T02:22:34.738Z,0.62
2018-02-20T02:23:34.465Z,0.65
2018-02-20T02:24:34.696Z,0.65
2018-02-20T02:25:34.421Z,0.68
2018-02-20T02:26:34.410Z,0.76
2018-02-20T02:27:34.399Z,0.65
2018-02-20T02:28:34.374Z,0.72
2018-02-20T02:29:34.357Z,0.68
2018-02-20T02:30:34.605Z,0.65
2018-02-20T02:31:34.601Z,0.68
2018-02-20T02:32:34.312Z,0.66
2018-02-20T02:33:34.555Z,0.75
2018-02-20T02:34:34.541Z,0.76
2018-02-20T02:35:34.515Z,0.62
2018-02-20T02:36:34.497Z,0.69
2018-02-20T02:37:34.480Z,0.69
2018-02-20T02:38:34.460Z,0.66
2018-02-20T02:39:34.452Z,0.72
2018-02-20T02:40:34.435Z,0.62
2018-02-20T02:41:34.439Z,0.7
2018-02-20T02:42:34.404Z,0.7
2018-02-20T02:43:34.393Z,0.66
2018-02-20T02:44:34.106Z,0.62
2018-02-20T02:45:34.357Z,0.72
2018-02-20T02:46:34.330Z,0.8
2018-02-20T02:47:34.314Z,0.72
2018-02-20T02:48:34.313Z,0.78
2018-02-20T02:49:34.288Z,0.72
2018-02-20T02:50:34.265Z,0.73
2018-02-20T02:51:33.992Z,0.65
2018-02-20T02:52:33.977Z,0.76
2018-02-20T02:53:34.215Z,0.78
2018-02-20T02:54:34.210Z,0.75
2018-02-20T02:55:34.189Z,0.75
2018-02-20T02:56:34.162Z,0.73
2018-02-20T02:57:34.148Z,0.69
2018-02-20T02:58:34.130Z,0.83
2018-02-20T02:59:33.861Z,0.73
2018-02-20T03:00:34.098Z,0.79
2018-02-20T03:01:34.084Z,0.7
2018-02-20T03:02:34.068Z,0.79
2018-02-20T03:03:34.046Z,0.76
2018-02-20T03:04:33.772Z,0.76
2018-02-20T03:05:34.024Z,0.69
2018-02-20T03:06:34.011Z,0.69
2018-02-20T03:07:33.979Z,0.68
2018-02-20T03:08:33.706Z,0.7
2018-02-20T03:09:33.953Z,0.66
2018-02-20T03:10:33.927Z,0.68
2018-02-20T03:11:33.915Z,0.66
2018-02-20T03:12:33.900Z,0.72
2018-02-20T03:13:33.881Z,0.73
2018-02-20T03:14:33.864Z,0.76
2018-02-20T03:15:33.842Z,0.76
2018-02-20T03:16:33.832Z,0.65
2018-02-20T03:17:33.825Z,0.72
2018-02-20T03:18:33.792Z,0.68
2018-02-20T03:19:33.778Z,0.73
2018-02-20T03:20:33.765Z,0.62
2018-02-20T03:21:33.747Z,0.65
2018-02-20T03:22:33.731Z,0.66
2018-02-20T03:23:33.709Z,0.72
2018-02-20T03:24:33.442Z,0.69
2018-02-20T03:25:33.678Z,0.75
2018-02-20T03:26:33.661Z,0.68
2018-02-20T03:27:33.645Z,0.68
2018-02-20T03:28:33.633Z,0.7
2018-02-20T03:29:33.619Z,0.72
2018-02-20T03:30:33.601Z,0.72
2018-02-20T03:31:33.591Z,0.57
2018-02-20T03:32:33.562Z,0.7
2018-02-20T03:33:33.547Z,0.57
2018-02-20T03:34:33.529Z,0.62
2018-02-20T03:35:33.523Z,0.55
2018-02-20T03:36:33.496Z,0.65
2018-02-20T03:37:33.478Z,0.65
2018-02-20T03:38:33.206Z,0.62
2018-02-20T03:39:33.456Z,0.62
2018-02-20T03:40:33.428Z,0.62
2018-02-20T03:41:33.419Z,0.61
2018-02-20T03:42:33.405Z,0.58
2018-02-20T03:43:33.379Z,0.61
2018-02-20T03:44:33.108Z,0.5
2018-02-20T03:45:33.343Z,0.53
2018-02-20T03:46:33.073Z,0.51
2018-02-20T03:47:33.316Z,0.53
2018-02-20T03:48:33.306Z,0.42
2018-02-20T03:49:33.277Z,0.47
2018-02-20T03:50:33.270Z,0.42
2018-02-20T03:51:33.251Z,0.41
2018-02-20T03:52:33.229Z,0.41
2018-02-20T03:53:32.959Z,0.46
2018-02-20T03:54:33.195Z,0.46
2018-02-20T03:55:33.179Z,0.36
2018-02-20T03:56:33.158Z,0.35
2018-02-20T03:57:33.141Z,0.38
2018-02-20T03:58:33.129Z,0.33
2018-02-20T03:59:33.108Z,0.32
2018-02-20T04:00:32.838Z,0.32
2018-02-20T04:01:33.075Z,0.31
2018-02-20T04:02:33.065Z,0.31
2018-02-20T04:03:33.046Z,0.29
2018-02-20T04:04:32.768Z,0.24
2018-02-20T04:05:33.012Z,0.26
2018-02-20T04:06:32.480Z,0.31
2018-02-20T04:07:32.978Z,0.15
2018-02-20T04:08:32.704Z,0.26
2018-02-20T04:09:32.943Z,0.28
2018-02-20T04:10:32.668Z,0.26
2018-02-20T04:11:32.915Z,0.21
2018-02-20T04:12:32.638Z,0.1
2018-02-20T04:13:32.874Z,0.14
2018-02-20T04:14:32.858Z,0.14
2018-02-20T04:15:32.836Z,0.1
2018-02-20T04:16:32.825Z,0.04
2018-02-20T04:17:32.801Z,0.14
2018-02-20T04:18:32.786Z,0.08
2018-02-20T04:19:32.772Z,-0.05
2018-02-20T04:20:32.500Z,-0.04
2018-02-20T04:21:32.486Z,-0.01
2018-02-20T04:22:32.723Z,-0.01
2018-02-20T04:23:32.736Z,-0.04
2018-02-20T04:24:32.688Z,-0.05
2018-02-20T04:25:32.674Z,-0.05
2018-02-20T04:26:32.656Z,0
2018-02-20T04:27:32.640Z,0.03
2018-02-20T04:28:32.870Z,-0.05
2018-02-20T04:29:32.598Z,-0.14
2018-02-20T04:30:32.581Z,-0.16
2018-02-20T04:31:32.313Z,0
2018-02-20T04:32:32.552Z,-0.16
2018-02-20T04:33:32.532Z,0.02
2018-02-20T04:34:32.522Z,-0.15
2018-02-20T04:35:32.493Z,-0.08
2018-02-20T04:36:32.476Z,-0.21
2018-02-20T04:37:32.465Z,-0.05
2018-02-20T04:38:32.196Z,-0.03
2018-02-20T04:39:32.429Z,-0.01
2018-02-20T04:40:32.411Z,-0.03
2018-02-20T04:41:32.396Z,-0.01
2018-02-20T04:42:32.429Z,-0.15
2018-02-20T04:43:32.108Z,-0.11
2018-02-20T04:44:32.092Z,-0.11
2018-02-20T04:45:32.072Z,-0.11
2018-02-20T04:46:32.061Z,-0.18
2018-02-20T04:47:32.302Z,-0.15
2018-02-20T04:48:32.279Z,-0.07
2018-02-20T04:49:32.267Z,-0.22
2018-02-20T04:50:32.244Z,-0.19
2018-02-20T04:51:32.228Z,-0.16
2018-02-20T04:52:32.237Z,-0.15
2018-02-20T04:53:32.187Z,-0.14
2018-02-20T04:54:32.173Z,-0.15
2018-02-20T04:55:32.158Z,-0.16
2018-02-20T04:56:31.888Z,-0.19
2018-02-20T04:57:31.870Z,-0.15
2018-02-20T04:58:31.870Z,-0.25
2018-02-20T04:59:32.087Z,-0.21
2018-02-20T05:00:32.078Z,-0.25
2018-02-20T05:01:31.544Z,-0.18
2018-02-20T05:02:32.045Z,-0.29
2018-02-20T05:03:31.768Z,-0.31
2018-02-20T05:04:32.003Z,-0.31
2018-02-20T05:05:31.985Z,-0.29
2018-02-20T05:06:31.966Z,-0.21
2018-02-20T05:07:31.954Z,-0.21
2018-02-20T05:08:31.932Z,-0.33
2018-02-20T05:09:31.918Z,-0.25
2018-02-20T05:10:31.647Z,-0.22
2018-02-20T05:11:31.882Z,-0.22
2018-02-20T05:12:31.864Z,-0.19
2018-02-20T05:13:31.845Z,-0.16
2018-02-20T05:14:31.575Z,-0.18
2018-02-20T05:15:31.814Z,-0.19
2018-02-20T05:16:31.792Z,-0.14
2018-02-20T05:17:31.522Z,-0.21
2018-02-20T05:18:31.767Z,-0.11
2018-02-20T05:19:31.746Z,-0.19
2018-02-20T05:20:31.473Z,-0.16
2018-02-20T05:21:31.710Z,-0.08
2018-02-20T05:22:31.738Z,-0.19
2018-02-20T05:23:31.675Z,-0.18
2018-02-20T05:24:31.658Z,-0.14
2018-02-20T05:25:31.384Z,-0.14
2018-02-20T05:26:31.624Z,-0.21
2018-02-20T05:27:31.611Z,-0.14
2018-02-20T05:28:31.335Z,-0.11
2018-02-20T05:29:31.576Z,-0.07
2018-02-20T05:30:31.316Z,-0.03
2018-02-20T05:31:31.541Z,-0.01
2018-02-20T05:32:31.268Z,-0.01
2018-02-20T05:33:31.504Z,-0.16
2018-02-20T05:34:31.489Z,-0.05
2018-02-20T05:35:31.220Z,-0.07
2018-02-20T05:36:31.199Z,-0.05
2018-02-20T05:37:31.430Z,-0.03
2018-02-20T05:38:31.418Z,-0.05
2018-02-20T05:39:30.891Z,-0.07
2018-02-20T05:40:31.389Z,0.03
2018-02-20T05:41:31.372Z,-0.04
2018-02-20T05:42:31.093Z,0.03
2018-02-20T05:43:31.333Z,-0.07
2018-02-20T05:44:31.316Z,-0.07
2018-02-20T05:45:31.302Z,-0.03
2018-02-20T05:46:31.291Z,0
2018-02-20T05:47:31.263Z,-0.03
2018-02-20T05:48:31.280Z,0
2018-02-20T05:49:31.236Z,0
2018-02-20T05:50:31.223Z,0.04
2018-02-20T05:51:31.289Z,-0.08
2018-02-20T05:52:31.181Z,-0.05
2018-02-20T05:53:31.158Z,-0.05
2018-02-20T05:54:31.146Z,-0.08
2018-02-20T05:55:31.123Z,-0.08
2018-02-20T05:56:31.130Z,-0.05
2018-02-20T05:57:31.098Z,-0.1
2018-02-20T05:58:31.084Z,0.04
2018-02-20T05:59:31.056Z,-0.21
2018-02-20T06:00:30.784Z,-0.14
2018-02-20T06:01:31.028Z,-0.1
2018-02-20T06:02:31.012Z,0.03
2018-02-20T06:03:30.479Z,0.02
2018-02-20T06:04:30.717Z,-0.03
2018-02-20T06:05:30.954Z,0.04
2018-02-20T06:06:30.999Z,0
2018-02-20T06:07:30.663Z,-0.04
2018-02-20T06:08:30.904Z,0
2018-02-20T06:09:30.695Z,-0.16
2018-02-20T06:10:30.870Z,-0.05
2018-02-20T06:11:30.855Z,-0.03
2018-02-20T06:12:30.839Z,-0.07
2018-02-20T06:13:30.818Z,-0.1
2018-02-20T06:14:30.802Z,-0.15
2018-02-20T06:15:30.781Z,-0.19
2018-02-20T06:16:30.776Z,-0.28
2018-02-20T06:17:30.753Z,-0.31
2018-02-20T06:18:30.733Z,-0.23
2018-02-20T06:19:30.714Z,-0.28
2018-02-20T06:20:30.706Z,-0.26
2018-02-20T06:21:30.684Z,-0.23
2018-02-20T06:22:30.667Z,-0.25
2018-02-20T06:23:30.393Z,-0.36
2018-02-20T06:24:30.377Z,-0.33
2018-02-20T06:25:30.615Z,-0.42
2018-02-20T06:26:30.607Z,-0.42
2018-02-20T06:27:30.587Z,-0.42
2018-02-20T06:28:30.561Z,-0.43
2018-02-20T06:29:30.548Z,-0.37
2018-02-20T06:30:30.536Z,-0.4
2018-02-20T06:31:30.516Z,-0.34
2018-02-20T06:32:30.497Z,-0.33
2018-02-20T06:33:30.729Z,-0.36
2018-02-20T06:34:30.567Z,-0.34
2018-02-20T06:35:30.520Z,-0.25
2018-02-20T06:36:30.429Z,-0.33
2018-02-20T06:37:30.412Z,-0.25
2018-02-20T06:38:30.390Z,-0.22
2018-02-20T06:39:30.392Z,-0.21
2018-02-20T06:40:30.105Z,-0.11
2018-02-20T06:41:30.351Z,-0.16
2018-02-20T06:42:30.320Z,-0.08
2018-02-20T06:43:30.306Z,-0.14
2018-02-20T06:44:29.779Z,-0.14
2018-02-20T06:45:30.019Z,-0.11
2018-02-20T06:46:30.256Z,-0.14
2018-02-20T06:47:29.987Z,-0.1
2018-02-20T06:48:29.964Z,-0.16
2018-02-20T06:49:29.946Z,-0.1
2018-02-20T06:50:29.934Z,-0.16
2018-02-20T06:51:29.914Z,-0.03
2018-02-20T06:52:30.154Z,-0.15
2018-02-20T06:53:29.882Z,-0.11
2018-02-20T06:54:29.859Z,-0.03
2018-02-20T06:55:29.844Z,0.03
2018-02-20T06:56:29.833Z,0
2018-02-20T06:57:30.078Z,0.03
2018-02-20T06:58:29.795Z,0.11
2018-02-20T06:59:30.036Z,0.11
2018-02-20T07:00:29.757Z,0.11
2018-02-20T07:01:29.745Z,0.26
2018-02-20T07:02:29.729Z,0.24
2018-02-20T07:03:29.712Z,0.28
2018-02-20T07:04:29.943Z,0.36
2018-02-20T07:05:29.936Z,0.41
2018-02-20T07:06:29.660Z,0.39
2018-02-20T07:07:29.646Z,0.5
2018-02-20T07:08:29.882Z,0.44
2018-02-20T07:09:29.617Z,0.61
2018-02-20T07:10:29.601Z,0.61
2018-02-20T07:11:29.841Z,0.72
2018-02-20T07:12:29.819Z,0.69
2018-02-20T07:13:29.800Z,0.79
2018-02-20T07:14:29.544Z,0.76
2018-02-20T07:15:29.897Z,0.8
2018-02-20T07:16:29.752Z,0.86
2018-02-20T07:17:29.740Z,0.88
2018-02-20T07:18:29.720Z,1.02
2018-02-20T07:19:29.726Z,1.02
2018-02-20T07:20:29.689Z,1.06
2018-02-20T07:21:29.706Z,1.02
2018-02-20T07:22:29.404Z,1.16
2018-02-20T07:23:29.646Z,1.12
2018-02-20T07:24:29.630Z,1.12
2018-02-20T07:25:29.614Z,1.16
2018-02-20T07:26:29.346Z,1.32
2018-02-20T07:27:29.588Z,1.36
2018-02-20T07:28:29.565Z,1.32
2018-02-20T07:29:29.555Z,1.4
2018-02-20T07:30:29.288Z,1.41
2018-02-20T07:31:29.539Z,1.44
2018-02-20T07:32:29.515Z,1.41
2018-02-20T07:33:29.500Z,1.37
2018-02-20T07:34:29.482Z,1.41
2018-02-20T07:35:29.473Z,1.34
2018-02-20T07:36:29.455Z,1.41
2018-02-20T07:37:29.443Z,1.45
2018-02-20T07:38:29.544Z,1.44
2018-02-20T07:39:29.146Z,1.58
2018-02-20T07:40:29.387Z,1.51
2018-02-20T07:41:29.374Z,1.62
2018-02-20T07:42:29.352Z,1.54
2018-02-20T07:43:29.106Z,1.59
2018-02-20T07:44:29.092Z,1.62
2018-02-20T07:45:29.315Z,1.54
2018-02-20T07:46:29.299Z,1.63
2018-02-20T07:47:29.027Z,1.6
2018-02-20T07:48:29.019Z,1.6
2018-02-20T07:49:29.002Z,1.63
2018-02-20T07:50:28.989Z,1.6
2018-02-20T07:51:28.972Z,1.68
2018-02-20T07:52:28.957Z,1.66
2018-02-20T07:53:29.201Z,1.65
2018-02-20T07:54:28.941Z,1.55
2018-02-20T07:55:28.926Z,1.54
2018-02-20T07:56:29.162Z,1.55
2018-02-20T07:57:29.141Z,1.44
2018-02-20T07:58:28.618Z,1.5
2018-02-20T07:59:29.113Z,1.41
2018-02-20T08:00:29.102Z,1.45
2018-02-20T08:01:29.099Z,1.41
2018-02-20T08:02:29.066Z,1.3
2018-02-20T08:03:29.057Z,1.34
2018-02-20T08:04:28.781Z,1.3
2018-02-20T08:05:29.038Z,1.24
2018-02-20T08:06:29.008Z,1.2
2018-02-20T08:07:28.995Z,1.23
2018-02-20T08:08:28.980Z,1.33
2018-02-20T08:09:28.705Z,1.27
2018-02-20T08:10:28.697Z,1.26
2018-02-20T08:11:28.948Z,1.29
2018-02-20T08:12:28.972Z,1.32
2018-02-20T08:13:29.114Z,1.2
2018-02-20T08:14:28.885Z,1.32
2018-02-20T08:15:28.868Z,1.37
2018-02-20T08:16:28.598Z,1.33
2018-02-20T08:17:28.613Z,1.29
2018-02-20T08:18:28.819Z,1.37
2018-02-20T08:19:28.821Z,1.42
2018-02-20T08:20:28.815Z,1.3
2018-02-20T08:21:28.520Z,1.24
2018-02-20T08:22:28.758Z,1.32
2018-02-20T08:23:28.512Z,1.33
2018-02-20T08:24:28.491Z,1.4
2018-02-20T08:25:28.714Z,1.36
2018-02-20T08:26:28.712Z,1.26
2018-02-20T08:27:28.681Z,1.37
2018-02-20T08:28:28.670Z,1.33
2018-02-20T08:29:28.395Z,1.41
2018-02-20T08:30:28.387Z,1.32
2018-02-20T08:31:28.620Z,1.42
2018-02-20T08:32:28.606Z,1.33
2018-02-20T08:33:28.586Z,1.44
2018-02-20T08:34:28.572Z,1.3
2018-02-20T08:35:28.300Z,1.42
2018-02-20T08:36:28.031Z,1.41
2018-02-20T08:37:28.267Z,1.44
2018-02-20T08:38:28.777Z,1.42
2018-02-20T08:39:28.512Z,1.42
2018-02-20T08:40:28.489Z,1.44
2018-02-20T08:41:28.209Z,1.4
2018-02-20T08:42:28.489Z,1.42
2018-02-20T08:43:28.441Z,1.41
2018-02-20T08:44:28.160Z,1.4
2018-02-20T08:45:28.402Z,1.42
2018-02-20T08:46:28.390Z,1.42
2018-02-20T08:47:28.388Z,1.45
2018-02-20T08:48:28.351Z,1.4
2018-02-20T08:49:28.085Z,1.48
2018-02-20T08:50:28.062Z,1.45
2018-02-20T08:51:28.309Z,1.42
2018-02-20T08:52:28.297Z,1.47
2018-02-20T08:53:28.285Z,1.44
2018-02-20T08:54:28.298Z,1.42
2018-02-20T08:55:28.007Z,1.36
2018-02-20T08:56:28.233Z,1.4
2018-02-20T08:57:28.230Z,1.44
2018-02-20T08:58:28.197Z,1.48
2018-02-20T08:59:28.181Z,1.48
2018-02-20T09:00:28.171Z,1.5
2018-02-20T09:01:28.163Z,1.55
2018-02-20T09:02:27.623Z,1.63
2018-02-20T09:03:27.872Z,1.6
2018-02-20T09:04:27.849Z,1.7
2018-02-20T09:05:27.846Z,1.77
2018-02-20T09:06:27.871Z,1.79
2018-02-20T09:07:27.809Z,1.79
2018-02-20T09:08:28.047Z,1.76
2018-02-20T09:09:28.029Z,1.81
2018-02-20T09:10:28.012Z,1.93
2018-02-20T09:11:27.821Z,1.95
2018-02-20T09:12:27.981Z,1.9
2018-02-20T09:13:27.964Z,1.99
2018-02-20T09:14:27.949Z,2.06
2018-02-20T09:15:27.930Z,2.09
2018-02-20T09:16:27.917Z,2.09
2018-02-20T09:17:27.902Z,2.07
2018-02-20T09:18:27.631Z,2.12
2018-02-20T09:19:27.620Z,2.14
2018-02-20T09:20:27.855Z,2.23
2018-02-20T09:21:27.840Z,2.34
2018-02-20T09:22:27.316Z,2.38
2018-02-20T09:23:27.812Z,2.45
2018-02-20T09:24:27.541Z,2.39
2018-02-20T09:25:27.800Z,2.41
2018-02-20T09:26:27.770Z,2.49
2018-02-20T09:27:27.753Z,2.6
2018-02-20T09:28:27.524Z,2.61
2018-02-20T09:29:27.476Z,2.71
2018-02-20T09:30:27.711Z,2.79
2018-02-20T09:31:27.859Z,2.82
2018-02-20T09:32:27.435Z,2.81
2018-02-20T09:33:27.668Z,2.9
2018-02-20T09:34:27.413Z,3.08
2018-02-20T09:35:27.637Z,3.06
2018-02-20T09:36:27.643Z,3.1
2018-02-20T09:37:27.613Z,3.06
2018-02-20T09:38:27.600Z,3.26
2018-02-20T09:39:27.578Z,3.24
2018-02-20T09:40:27.816Z,3.36
2018-02-20T09:41:27.549Z,3.39
2018-02-20T09:42:27.280Z,3.36
2018-02-20T09:43:27.519Z,3.54
2018-02-20T09:44:27.507Z,3.52
2018-02-20T09:45:27.494Z,3.62
2018-02-20T09:46:27.481Z,3.69
2018-02-20T09:47:27.211Z,3.7
2018-02-20T09:48:27.466Z,3.78
2018-02-20T09:49:27.185Z,3.84
2018-02-20T09:50:27.177Z,3.96
2018-02-20T09:51:27.413Z,4
2018-02-20T09:52:27.400Z,3.94
2018-02-20T09:53:27.123Z,4.04
2018-02-20T09:54:27.109Z,4
2018-02-20T09:55:27.360Z,4.08
2018-02-20T09:56:27.343Z,4.06
2018-02-20T09:57:27.325Z,4
2018-02-20T09:58:27.059Z,4.11
2018-02-20T09:59:27.047Z,4.09
2018-02-20T10:00:27.306Z,4.08
2018-02-20T10:01:27.270Z,4.11
2018-02-20T10:02:27.259Z,4.18
2018-02-20T10:03:27.246Z,4.23
2018-02-20T10:04:27.245Z,4.23
2018-02-20T10:05:27.217Z,4.29
2018-02-20T10:06:27.206Z,4.41
2018-02-20T10:07:26.935Z,4.41
2018-02-20T10:08:27.180Z,4.37
2018-02-20T10:09:27.175Z,4.5
2018-02-20T10:10:27.147Z,4.48
2018-02-20T10:11:26.880Z,4.5
2018-02-20T10:12:26.874Z,4.47
2018-02-20T10:13:27.124Z,4.51
2018-02-20T10:14:26.854Z,4.55
2018-02-20T10:15:27.098Z,4.63
2018-02-20T10:16:27.085Z,4.66
2018-02-20T10:17:27.101Z,4.66
2018-02-20T10:18:27.046Z,4.63
2018-02-20T10:19:26.773Z,4.72
2018-02-20T10:20:27.039Z,4.72
2018-02-20T10:21:27.031Z,4.66
2018-02-20T10:22:26.998Z,4.82
2018-02-20T10:23:26.730Z,4.65
2018-02-20T10:24:26.999Z,4.66
2018-02-20T10:25:26.962Z,4.66
2018-02-20T10:26:26.682Z,4.69
2018-02-20T10:27:26.964Z,4.8
2018-02-20T10:28:26.917Z,4.7
2018-02-20T10:29:26.666Z,4.67
2018-02-20T10:30:26.894Z,4.63
2018-02-20T10:31:26.368Z,4.63
2018-02-20T10:32:26.916Z,4.73
2018-02-20T10:33:26.866Z,4.67
2018-02-20T10:34:26.851Z,4.6
2018-02-20T10:35:26.848Z,4.67
2018-02-20T10:36:26.850Z,4.54
2018-02-20T10:37:26.795Z,4.54
2018-02-20T10:38:26.778Z,4.5
2018-02-20T10:39:26.510Z,4.5
2018-02-20T10:40:26.759Z,4.47
2018-02-20T10:41:26.744Z,4.47
2018-02-20T10:42:26.466Z,4.48
2018-02-20T10:43:26.720Z,4.5
2018-02-20T10:44:26.450Z,4.52
2018-02-20T10:45:26.431Z,4.47
2018-02-20T10:46:26.425Z,4.51
2018-02-20T10:47:26.675Z,4.54
2018-02-20T10:48:26.693Z,4.65
2018-02-20T10:49:26.409Z,4.6
2018-02-20T10:50:26.647Z,4.7
2018-02-20T10:51:26.605Z,4.69
2018-02-20T10:52:26.590Z,4.73
2018-02-20T10:53:26.593Z,4.7
2018-02-20T10:54:26.573Z,4.7
2018-02-20T10:55:26.549Z,4.85
2018-02-20T10:56:26.538Z,4.78
2018-02-20T10:57:26.526Z,4.67
2018-02-20T10:58:26.311Z,4.66
2018-02-20T10:59:26.512Z,4.67
2018-02-20T11:00:26.505Z,4.59
2018-02-20T11:01:26.490Z,4.65
2018-02-20T11:02:26.214Z,4.62
2018-02-20T11:03:26.459Z,4.59
2018-02-20T11:04:25.925Z,4.51
2018-02-20T11:05:26.167Z,4.5
2018-02-20T11:06:26.421Z,4.55
2018-02-20T11:07:26.428Z,4.5
2018-02-20T11:08:26.131Z,4.4
2018-02-20T11:09:26.116Z,4.48
2018-02-20T11:10:26.372Z,4.5
2018-02-20T11:11:26.336Z,4.37
2018-02-20T11:12:26.327Z,4.5
2018-02-20T11:13:26.398Z,4.52
2018-02-20T11:14:26.575Z,4.52
2018-02-20T11:15:26.032Z,4.51
2018-02-20T11:16:26.271Z,4.58
2018-02-20T11:17:26.256Z,4.47
2018-02-20T11:18:25.734Z,4.54
2018-02-20T11:19:25.976Z,4.51
2018-02-20T11:20:26.223Z,4.58
2018-02-20T11:21:26.202Z,4.55
2018-02-20T11:22:26.200Z,4.51
2018-02-20T11:23:26.179Z,4.5
2018-02-20T11:24:25.910Z,4.55
2018-02-20T11:25:26.146Z,4.66
2018-02-20T11:26:26.135Z,4.6
2018-02-20T11:27:26.125Z,4.58
2018-02-20T11:28:26.104Z,4.48
2018-02-20T11:29:26.123Z,4.6
2018-02-20T11:30:25.832Z,4.55
2018-02-20T11:31:25.814Z,4.45
2018-02-20T11:32:25.543Z,4.55
2018-02-20T11:33:26.048Z,4.55
2018-02-20T11:34:26.033Z,4.6
2018-02-20T11:35:26.013Z,4.65
2018-02-20T11:36:25.995Z,4.65
2018-02-20T11:37:25.988Z,4.51
2018-02-20T11:38:25.975Z,4.63
2018-02-20T11:39:25.983Z,4.63
2018-02-20T11:40:25.948Z,4.62
2018-02-20T11:41:25.967Z,4.66
2018-02-20T11:42:25.923Z,4.67
2018-02-20T11:43:25.907Z,4.72
2018-02-20T11:44:25.893Z,4.72
2018-02-20T11:45:26.125Z,4.65
2018-02-20T11:46:25.608Z,4.69
2018-02-20T11:47:25.851Z,4.78
2018-02-20T11:48:25.591Z,4.72
2018-02-20T11:49:25.830Z,4.66
2018-02-20T11:50:25.894Z,4.67
2018-02-20T11:51:25.548Z,4.67
2018-02-20T11:52:25.788Z,4.72
2018-02-20T11:53:25.777Z,4.75
2018-02-20T11:54:25.761Z,4.73
2018-02-20T11:55:25.758Z,4.8
2018-02-20T11:56:25.737Z,4.91
2018-02-20T11:57:25.457Z,4.91
2018-02-20T11:58:25.706Z,4.96
2018-02-20T11:59:25.690Z,4.94
2018-02-20T12:00:25.687Z,4.92
2018-02-20T12:01:25.811Z,4.91
2018-02-20T12:02:25.665Z,5
2018-02-20T12:03:25.379Z,4.99
2018-02-20T12:04:25.647Z,5.04
2018-02-20T12:05:25.614Z,5.17
2018-02-20T12:06:25.610Z,5.18
2018-02-20T12:07:25.349Z,5.21
2018-02-20T12:08:25.569Z,5.21
2018-02-20T12:09:25.582Z,5.17
2018-02-20T12:10:25.551Z,5.22
2018-02-20T12:11:25.782Z,5.24
2018-02-20T12:12:25.553Z,5.35
2018-02-20T12:13:25.517Z,5.38
2018-02-20T12:14:25.507Z,5.45
2018-02-20T12:15:25.499Z,5.49
2018-02-20T12:16:25.479Z,5.61
2018-02-20T12:17:25.464Z,5.56
2018-02-20T12:18:25.472Z,5.6
2018-02-20T12:19:24.912Z,5.58
2018-02-20T12:20:25.507Z,5.51
2018-02-20T12:21:25.407Z,5.57
2018-02-20T12:22:25.393Z,5.57
2018-02-20T12:23:25.406Z,5.56
2018-02-20T12:24:25.113Z,5.49
2018-02-20T12:25:25.366Z,5.46
2018-02-20T12:26:25.337Z,5.51
2018-02-20T12:27:25.328Z,5.57
2018-02-20T12:28:25.053Z,5.64
2018-02-20T12:29:25.310Z,5.54
2018-02-20T12:30:25.027Z,5.56
2018-02-20T12:31:25.271Z,5.67
2018-02-20T12:32:25.256Z,5.65
2018-02-20T12:33:25.244Z,5.72
2018-02-20T12:34:25.228Z,5.67
2018-02-20T12:35:25.232Z,5.76
2018-02-20T12:36:25.206Z,5.81
2018-02-20T12:37:24.933Z,5.75
2018-02-20T12:38:25.189Z,5.82
2018-02-20T12:39:25.168Z,5.71
2018-02-20T12:40:25.159Z,5.71
2018-02-20T12:41:25.139Z,5.76
2018-02-20T12:42:25.130Z,5.75
2018-02-20T12:43:25.121Z,5.72
2018-02-20T12:44:25.117Z,5.75
2018-02-20T12:45:24.841Z,5.75
2018-02-20T12:46:25.076Z,5.76
2018-02-20T12:47:25.069Z,5.86
2018-02-20T12:48:25.055Z,5.89
2018-02-20T12:49:25.042Z,5.83
2018-02-20T12:50:25.032Z,5.86
2018-02-20T12:51:24.757Z,5.82
2018-02-20T12:52:24.745Z,5.64
2018-02-20T12:53:24.986Z,5.72
2018-02-20T12:54:24.977Z,5.64
2018-02-20T12:55:24.969Z,5.64
2018-02-20T12:56:24.953Z,5.54
2018-02-20T12:57:24.940Z,5.46
2018-02-20T12:58:24.929Z,5.33
2018-02-20T12:59:24.918Z,5.22
2018-02-20T13:00:24.647Z,5.17
2018-02-20T13:01:24.883Z,5.33
2018-02-20T13:02:24.873Z,5.27
2018-02-20T13:03:24.889Z,5.33
2018-02-20T13:04:24.953Z,5.2
2018-02-20T13:05:24.926Z,5.27
2018-02-20T13:06:24.872Z,5.24
2018-02-20T13:07:24.558Z,5.24
2018-02-20T13:08:24.796Z,5.24
2018-02-20T13:09:24.780Z,5.27
2018-02-20T13:10:24.833Z,5.35
2018-02-20T13:11:24.802Z,5.27
2018-02-20T13:12:24.748Z,5.39
2018-02-20T13:13:24.728Z,5.38
2018-02-20T13:14:24.714Z,5.43
2018-02-20T13:15:24.458Z,5.39
2018-02-20T13:16:24.434Z,5.36
2018-02-20T13:17:24.688Z,5.39